Time;durP1;ratioP1;P1;durP2;ratioP2;P2;SDS_P1;SDS_P2;PMS_P1;PMS_P2;Temp;Humidity;BMP_temperature;BMP_pressure;BME280_temperature;BME280_humidity;BME280_pressure;Samples;Min_cycle;Max_cycle;Signal;HPM_P1;HPM_P2
2022/08/03 00:02:23;;;;;;;6.68;3.50;;;;;;;18.24;91.14;101523.22;6126210;23;20006;-73
2022/08/03 00:04:48;;;;;;;8.27;3.60;;;;;;;18.22;90.78;101537.38;6126029;23;20014;-73
2022/08/03 00:07:14;;;;;;;7.88;3.35;;;;;;;18.10;90.99;101509.66;6126061;23;20381;-72
2022/08/03 00:09:39;;;;;;;9.07;3.40;;;;;;;18.19;91.25;101527.16;6126090;23;20012;-73
2022/08/03 00:12:05;;;;;;;6.85;3.38;;;;;;;17.97;90.68;101505.44;6125805;23;20006;-73
2022/08/03 00:14:30;;;;;;;7.32;3.88;;;;;;;18.13;91.52;101530.31;6126327;23;20013;-72
2022/08/03 00:16:56;;;;;;;9.68;3.83;;;;;;;18.10;91.36;101533.19;6126110;23;20008;-72
2022/08/03 00:19:21;;;;;;;9.63;4.00;;;;;;;18.02;92.07;101518.97;6125601;23;20018;-73
2022/08/03 00:21:47;;;;;;;6.63;3.00;;;;;;;18.03;91.98;101528.47;6126187;23;20012;-73
2022/08/03 00:24:12;;;;;;;8.02;3.80;;;;;;;17.84;91.82;101504.81;6125942;23;19998;-72
2022/08/03 00:26:37;;;;;;;10.27;3.85;;;;;;;17.88;91.46;101505.38;6125739;23;20002;-73
2022/08/03 00:29:03;;;;;;;8.18;3.88;;;;;;;18.02;92.57;101520.75;6125779;23;20005;-78
2022/08/03 00:31:28;;;;;;;7.82;3.53;;;;;;;17.95;91.91;101520.41;6126278;23;20001;-78
2022/08/03 00:33:53;;;;;;;8.20;3.88;;;;;;;17.93;92.41;101522.34;6126046;23;20033;-80
2022/08/03 00:36:19;;;;;;;7.97;3.90;;;;;;;17.90;92.37;101520.00;6125817;23;20336;-74
2022/08/03 00:38:44;;;;;;;9.35;3.95;;;;;;;17.78;92.45;101500.06;6125912;23;20002;-75
2022/08/03 00:41:09;;;;;;;8.95;3.75;;;;;;;17.87;92.67;101511.56;6125571;23;20009;-75
2022/08/03 00:43:35;;;;;;;8.48;3.97;;;;;;;17.84;92.56;101517.88;6125627;23;20006;-76
2022/08/03 00:46:00;;;;;;;8.43;3.88;;;;;;;17.82;92.77;101516.34;6125929;23;20041;-74
2022/08/03 00:48:25;;;;;;;10.60;4.57;;;;;;;17.72;92.92;101508.44;6126221;23;20006;-74
2022/08/03 00:50:52;;;;;;;11.95;4.10;;;;;;;17.73;93.50;101512.72;6125940;23;20006;-74
2022/08/03 00:53:17;;;;;;;8.52;4.45;;;;;;;17.70;93.07;101513.78;6125660;23;20002;-73
2022/08/03 00:55:43;;;;;;;12.15;4.35;;;;;;;17.70;93.33;101503.34;6125463;23;20013;-73
2022/08/03 00:58:10;;;;;;;11.18;5.13;;;;;;;17.48;93.75;101480.72;6125603;23;20381;-73
2022/08/03 01:00:37;;;;;;;12.63;5.03;;;;;;;17.65;94.02;101505.47;6125908;23;20325;-73
2022/08/03 01:03:07;;;;;;;10.07;5.00;;;;;;;17.56;93.67;101487.94;6125618;23;20438;-72
2022/08/03 01:05:39;;;;;;;10.20;4.82;;;;;;;17.60;93.23;101501.56;6126190;23;20044;-73
2022/08/03 01:08:19;;;;;;;6.70;3.83;;;;;;;17.60;93.11;101491.97;6125565;23;20064;-73
2022/08/03 01:10:51;;;;;;;8.05;3.92;;;;;;;17.53;93.33;101496.03;6125532;23;20006;-73
2022/08/03 01:13:32;;;;;;;9.02;4.40;;;;;;;17.52;93.96;101496.97;6125478;23;20006;-73
2022/08/03 01:16:04;;;;;;;9.02;4.47;;;;;;;17.49;93.99;101494.59;6098861;23;20014;-73
2022/08/03 01:18:37;;;;;;;9.00;4.20;;;;;;;17.45;94.05;101493.22;6125824;23;20014;-73
2022/08/03 01:21:47;;;;;;;11.32;4.78;;;;;;;17.47;93.51;101486.91;6125512;23;20080;-72
2022/08/03 01:24:31;;;;;;;13.35;5.20;;;;;;;17.45;93.36;101488.81;6007854;23;20139;-74
2022/08/03 01:27:10;;;;;;;10.68;5.40;;;;;;;17.45;94.57;101486.19;6007978;23;20390;-74
2022/08/03 01:29:48;;;;;;;11.70;5.47;;;;;;;17.41;95.30;101492.63;6008035;23;20083;-72
2022/08/03 01:32:18;;;;;;;9.88;5.53;;;;;;;17.45;95.14;101487.97;6007814;23;20018;-74
2022/08/03 01:35:02;;;;;;;12.73;6.18;;;;;;;17.39;94.62;101481.47;6007881;23;20516;-73
2022/08/03 01:37:35;;;;;;;12.38;5.63;;;;;;;17.37;94.60;101485.16;6007989;23;20008;-73
2022/08/03 01:40:02;;;;;;;10.70;5.15;;;;;;;17.33;94.77;101484.59;5985509;23;20018;-74
2022/08/03 01:42:30;;;;;;;11.52;5.05;;;;;;;17.31;95.40;101496.94;6007890;23;20016;-74
2022/08/03 01:44:57;;;;;;;10.10;5.15;;;;;;;17.22;95.63;101475.97;6007818;23;20012;-73
2022/08/03 01:47:24;;;;;;;9.93;5.05;;;;;;;17.26;95.41;101485.19;6007911;23;20015;-73
2022/08/03 01:49:51;;;;;;;9.50;4.80;;;;;;;17.24;95.06;101487.94;6007947;23;20208;-73
2022/08/03 01:52:19;;;;;;;9.68;5.35;;;;;;;17.14;95.31;101472.19;6008124;23;20067;-73
2022/08/03 01:54:47;;;;;;;9.27;5.03;;;;;;;17.07;95.42;101470.19;6008245;23;20075;-72
2022/08/03 01:57:14;;;;;;;10.20;5.18;;;;;;;17.12;95.73;101468.06;6009531;23;20018;-73
2022/08/03 01:59:40;;;;;;;8.73;4.75;;;;;;;17.13;95.31;101477.53;6022763;23;20049;-74
2022/08/03 02:02:10;;;;;;;17.65;6.30;;;;;;;17.09;95.61;101476.94;6127586;23;20045;-73
2022/08/03 02:04:37;;;;;;;11.65;5.78;;;;;;;17.04;95.54;101473.88;6127226;23;20006;-74
2022/08/03 02:07:02;;;;;;;12.43;6.32;;;;;;;17.08;95.84;101479.66;6127151;23;20008;-75
2022/08/03 02:09:29;;;;;;;12.75;5.80;;;;;;;17.02;95.53;101467.13;6127510;23;20034;-73
2022/08/03 02:11:56;;;;;;;13.07;6.10;;;;;;;16.95;95.81;101453.75;6127437;23;20008;-76
2022/08/03 02:14:23;;;;;;;11.38;5.93;;;;;;;17.01;95.97;101468.91;6127193;23;20002;-73
2022/08/03 02:16:50;;;;;;;10.02;6.22;;;;;;;17.07;95.89;101484.06;6126862;23;20010;-73
2022/08/03 02:19:17;;;;;;;11.98;5.75;;;;;;;17.04;96.55;101483.50;6127053;23;20018;-73
2022/08/03 02:21:45;;;;;;;13.18;6.65;;;;;;;16.98;96.86;101468.31;6127151;23;20006;-73
2022/08/03 02:24:11;;;;;;;10.60;5.95;;;;;;;17.02;96.42;101480.19;6126942;23;20044;-72
2022/08/03 02:26:38;;;;;;;13.45;6.32;;;;;;;17.00;96.71;101477.66;6100430;23;20009;-73
2022/08/03 02:29:14;;;;;;;11.98;6.88;;;;;;;17.01;96.87;101479.34;6127008;23;20006;-74
2022/08/03 02:31:42;;;;;;;12.43;7.10;;;;;;;16.85;96.90;101458.84;6127113;23;20005;-73
2022/08/03 02:34:12;;;;;;;11.88;6.60;;;;;;;16.94;97.02;101469.53;6127134;23;20037;-73
2022/08/03 02:36:39;;;;;;;11.93;5.65;;;;;;;16.77;97.08;101440.38;6126593;23;20097;-73
2022/08/03 02:39:08;;;;;;;18.80;6.72;;;;;;;16.91;97.15;101463.59;6127043;23;20088;-72
2022/08/03 02:41:42;;;;;;;8.63;5.43;;;;;;;16.91;97.57;101471.44;6127078;23;20336;-72
2022/08/03 02:44:09;;;;;;;12.77;6.38;;;;;;;16.89;97.70;101462.03;6126694;23;20008;-72
2022/08/03 02:46:40;;;;;;;11.30;5.93;;;;;;;16.88;97.47;101465.59;6126651;23;20006;-73
2022/08/03 02:49:07;;;;;;;12.50;6.28;;;;;;;16.87;97.32;101461.34;6126900;23;20056;-73
2022/08/03 02:51:35;;;;;;;11.88;6.25;;;;;;;16.75;97.81;101441.47;6126706;23;20030;-73
2022/08/03 02:54:03;;;;;;;12.57;6.38;;;;;;;16.88;97.74;101461.22;6126631;23;20033;-73
2022/08/03 02:56:29;;;;;;;11.68;5.95;;;;;;;16.86;97.80;101460.50;6126578;23;20032;-72
2022/08/03 02:58:57;;;;;;;11.80;6.30;;;;;;;16.71;98.18;101442.63;6126243;23;20006;-72
2022/08/03 03:01:24;;;;;;;13.82;6.68;;;;;;;16.83;98.37;101457.34;6126974;23;20006;-73
2022/08/03 03:03:51;;;;;;;13.48;6.35;;;;;;;16.75;98.86;101455.31;6126362;23;20006;-73
2022/08/03 03:06:17;;;;;;;13.93;6.10;;;;;;;16.75;98.76;101450.09;6126289;23;20069;-72
2022/08/03 03:08:44;;;;;;;13.32;6.57;;;;;;;16.84;98.88;101461.59;6126885;23;20001;-72
2022/08/03 03:11:11;;;;;;;11.43;5.75;;;;;;;16.83;99.03;101460.78;6126376;23;20006;-73
2022/08/03 03:13:40;;;;;;;14.07;6.30;;;;;;;16.79;99.56;101458.50;6126565;23;20381;-73
2022/08/03 03:16:07;;;;;;;14.60;6.13;;;;;;;16.68;100.00;101446.31;6126547;23;20014;-73
2022/08/03 03:18:33;;;;;;;16.80;7.05;;;;;;;16.67;99.99;101434.19;6126708;23;20052;-72
2022/08/03 03:21:01;;;;;;;15.85;6.68;;;;;;;16.81;100.00;101460.06;6126118;23;20021;-73
2022/08/03 03:23:27;;;;;;;12.80;6.80;;;;;;;16.84;100.00;101466.81;6126631;23;20021;-72
2022/08/03 03:25:54;;;;;;;12.82;6.47;;;;;;;16.82;100.00;101464.34;6126372;23;20048;-72
2022/08/03 03:28:22;;;;;;;16.75;7.10;;;;;;;16.85;100.00;101464.06;6126005;23;20424;-73
2022/08/03 03:30:48;;;;;;;13.23;6.75;;;;;;;16.83;100.00;101458.16;6126422;23;20006;-73
2022/08/03 03:33:13;;;;;;;14.35;6.85;;;;;;;16.79;100.00;101446.28;6126282;23;20429;-72
2022/08/03 03:35:41;;;;;;;13.85;6.15;;;;;;;16.85;100.00;101458.84;6126136;23;20012;-73
2022/08/03 03:38:07;;;;;;;14.90;6.45;;;;;;;16.64;100.00;101416.19;6126046;23;20006;-73
2022/08/03 03:40:34;;;;;;;15.85;7.20;;;;;;;16.80;100.00;101445.34;6126288;23;20073;-72
2022/08/03 03:42:59;;;;;;;13.90;6.95;;;;;;;16.81;100.00;101454.84;6126279;23;20006;-72
2022/08/03 03:45:25;;;;;;;13.60;6.35;;;;;;;16.78;100.00;101452.47;6126146;23;20389;-72
2022/08/03 03:47:51;;;;;;;14.27;7.25;;;;;;;16.83;100.00;101452.94;6126402;23;20014;-72
2022/08/03 03:50:17;;;;;;;12.50;6.38;;;;;;;16.80;100.00;101449.72;6126284;23;20476;-72
2022/08/03 03:52:43;;;;;;;13.98;7.05;;;;;;;16.69;100.00;101432.31;6099991;23;20439;-73
2022/08/03 03:55:08;;;;;;;13.90;7.30;;;;;;;16.80;100.00;101449.72;6126142;23;20089;-74
2022/08/03 03:57:34;;;;;;;13.13;6.32;;;;;;;16.78;100.00;101439.41;6126348;23;20073;-73
2022/08/03 03:59:59;;;;;;;18.52;7.20;;;;;;;16.75;100.00;101434.47;6126221;23;20002;-73
2022/08/03 04:02:24;;;;;;;14.80;6.95;;;;;;;16.74;100.00;101438.03;6125945;23;20077;-72
2022/08/03 04:11:00;;;;;;;15.57;7.10;;;;;;;16.61;100.00;101416.41;6126152;23;20345;-73
2022/08/03 04:13:35;;;;;;;13.07;6.15;;;;;;;16.74;100.00;101442.41;6125863;23;20012;-73
2022/08/03 04:16:02;;;;;;;13.43;6.93;;;;;;;16.69;100.00;101447.97;6126091;23;20037;-73
2022/08/03 04:18:30;;;;;;;15.82;7.05;;;;;;;16.73;100.00;101462.44;6125736;23;20476;-73
2022/08/03 04:21:00;;;;;;;16.42;6.93;;;;;;;16.75;100.00;101452.72;6125751;23;20018;-73
2022/08/03 04:23:27;;;;;;;15.45;6.70;;;;;;;16.68;100.00;101448.06;6125840;23;20459;-73
2022/08/03 04:25:53;;;;;;;17.27;7.43;;;;;;;16.79;100.00;101454.13;6126154;23;20006;-73
2022/08/03 04:28:21;;;;;;;13.85;6.10;;;;;;;16.70;100.00;101443.59;6125957;23;20033;-73
2022/08/03 04:30:49;;;;;;;15.98;6.40;;;;;;;16.81;100.00;101451.38;6126060;23;20008;-73
2022/08/03 04:33:17;;;;;;;14.75;6.97;;;;;;;16.83;100.00;101450.34;6125877;23;20057;-73
2022/08/03 04:35:45;;;;;;;13.05;7.22;;;;;;;16.85;100.00;101453.66;6125955;23;20010;-73
2022/08/03 04:38:13;;;;;;;15.80;7.28;;;;;;;16.77;100.00;101439.53;6126021;23;20006;-72
2022/08/03 04:40:41;;;;;;;12.02;6.28;;;;;;;16.92;100.00;101461.81;6125610;23;20005;-74
2022/08/03 04:43:08;;;;;;;15.35;7.22;;;;;;;16.94;100.00;101456.47;6125846;23;20009;-73
2022/08/03 04:45:35;;;;;;;15.45;6.88;;;;;;;16.84;100.00;101445.94;6125752;23;20464;-74
2022/08/03 04:48:01;;;;;;;10.55;4.35;;;;;;;17.18;100.00;101465.75;6125589;23;20005;-75
2022/08/03 04:50:27;;;;;;;10.30;5.13;;;;;;;17.37;100.00;101459.88;6125801;23;20012;-79
2022/08/03 04:52:52;;;;;;;8.50;4.07;;;;;;;17.74;96.74;101476.00;6125879;23;20002;-79
2022/08/03 04:55:31;;;;;;;9.43;4.60;;;;;;;17.96;95.57;101472.41;6125798;23;20122;-78
2022/08/03 04:57:58;;;;;;;9.68;4.47;;;;;;;18.17;93.33;101469.78;6125403;23;20006;-76
2022/08/03 05:00:24;;;;;;;13.05;3.97;;;;;;;18.26;92.81;101468.16;6125548;23;20012;-73
2022/08/03 05:02:50;;;;;;;11.95;4.68;;;;;;;18.28;92.41;101466.25;6125765;23;20010;-74
2022/08/03 05:05:16;;;;;;;9.05;3.83;;;;;;;18.48;91.61;101485.47;6125510;23;20006;-75
2022/08/03 05:07:43;;;;;;;14.75;6.18;;;;;;;18.37;93.16;101475.94;6125904;23;20002;-76
2022/08/03 05:10:09;;;;;;;13.35;6.00;;;;;;;18.42;92.84;101476.38;6125506;23;20080;-75
2022/08/03 05:12:35;;;;;;;13.30;5.97;;;;;;;18.51;92.29;101470.34;6125841;23;20443;-74
2022/08/03 05:15:01;;;;;;;11.40;5.05;;;;;;;18.92;90.03;101479.03;6125176;23;20014;-75
2022/08/03 05:17:27;;;;;;;9.77;4.13;;;;;;;19.15;88.13;101469.97;6125671;23;20006;-75
2022/08/03 05:19:53;;;;;;;10.82;4.70;;;;;;;19.55;86.59;101487.34;6125313;23;20014;-75
2022/08/03 05:22:19;;;;;;;15.63;4.68;;;;;;;19.54;85.67;101469.13;6125660;23;20010;-74
2022/08/03 05:24:46;;;;;;;10.20;3.95;;;;;;;19.90;84.46;101491.22;6125829;23;20041;-74
2022/08/03 05:27:16;;;;;;;11.20;4.63;;;;;;;20.10;83.44;101490.19;6125569;23;20006;-79
2022/08/03 05:29:42;;;;;;;10.43;4.20;;;;;;;20.52;81.49;101485.38;6126984;23;20006;-83
2022/08/03 05:32:07;;;;;;;11.57;4.07;;;;;;;20.95;79.80;101490.97;6127517;23;20034;-74
2022/08/03 05:34:33;;;;;;;8.13;3.83;;;;;;;21.56;76.41;101498.13;6127635;23;20013;-79
2022/08/03 05:36:58;;;;;;;10.77;4.45;;;;;;;22.07;73.89;101499.19;6127493;23;20002;-76
2022/08/03 05:39:23;;;;;;;10.52;3.70;;;;;;;;;;6127473;23;20057;-83
2022/08/03 05:41:48;;;;;;;7.47;3.57;;;;;;;23.21;69.02;101500.47;6126412;23;20002;-75
2022/08/03 05:44:14;;;;;;;11.00;4.18;;;;;;;23.81;66.56;101502.81;6128269;23;20296;-74
2022/08/03 05:46:39;;;;;;;8.30;3.42;;;;;;;24.41;64.45;101494.47;6127765;23;20077;-77
2022/08/03 05:49:04;;;;;;;8.40;3.20;;;;;;;25.13;60.89;101500.38;6127666;23;20004;-76
2022/08/03 05:51:30;;;;;;;10.05;3.47;;;;;;;25.54;60.55;101496.59;6127095;23;20006;-79
2022/08/03 05:53:55;;;;;;;9.57;3.85;;;;;;;26.07;58.03;101502.75;6100720;23;20006;-73
2022/08/03 05:56:23;;;;;;;8.32;3.25;;;;;;;26.22;56.93;101503.56;6127066;23;20431;-74
2022/08/03 05:58:48;;;;;;;10.30;3.17;;;;;;;25.69;57.92;101497.47;6127030;23;20340;-76
2022/08/03 06:01:15;;;;;;;9.75;3.80;;;;;;;25.56;58.46;101492.75;6127257;23;20037;-76
2022/08/03 06:03:41;;;;;;;10.95;3.22;;;;;;;26.04;57.34;101495.97;6127101;23;20006;-73
2022/08/03 06:06:06;;;;;;;8.02;3.22;;;;;;;26.54;55.37;101494.41;6127509;23;20002;-79
2022/08/03 06:08:31;;;;;;;9.90;2.70;;;;;;;27.11;53.58;101499.78;6127324;23;20080;-79
2022/08/03 06:10:57;;;;;;;8.80;2.50;;;;;;;27.69;52.28;101492.56;6100675;23;20045;-75
2022/08/03 06:13:22;;;;;;;8.60;2.72;;;;;;;27.91;50.86;101489.84;6127229;23;20002;-76
2022/08/03 06:15:48;;;;;;;10.02;2.70;;;;;;;28.51;49.70;101491.00;6126874;23;20405;-77
2022/08/03 06:18:13;;;;;;;9.15;2.78;;;;;;;28.85;48.75;101496.25;6127007;23;20156;-76
2022/08/03 06:20:38;;;;;;;11.95;2.72;;;;;;;28.99;47.78;101494.44;6126928;23;20010;-77
2022/08/03 06:23:04;;;;;;;8.35;2.38;;;;;;;29.14;47.57;101499.59;6127139;23;20036;-77
2022/08/03 06:25:29;;;;;;;12.82;2.88;;;;;;;29.30;47.61;101493.91;6126888;23;20010;-89
2022/08/03 06:27:55;;;;;;;9.23;2.42;;;;;;;29.25;46.29;101461.75;6126618;23;20002;-76
2022/08/03 06:30:20;;;;;;;10.93;3.20;;;;;;;29.58;45.70;101492.88;6126832;23;20127;-80
2022/08/03 06:32:46;;;;;;;10.43;2.65;;;;;;;29.65;45.05;101467.91;6100374;23;20060;-79
2022/08/03 06:35:11;;;;;;;7.72;2.53;;;;;;;29.81;44.91;101492.47;6127000;23;20009;-77
2022/08/03 06:37:43;;;;;;;9.57;2.53;;;;;;;30.07;46.13;101504.94;6127215;23;20333;-76
2022/08/03 06:40:10;;;;;;;9.80;2.50;;;;;;;30.32;43.88;101508.56;6126866;23;20006;-76
2022/08/03 06:42:35;;;;;;;8.38;2.47;;;;;;;30.06;43.67;101474.78;6127196;23;20017;-74
2022/08/03 06:45:02;;;;;;;8.07;2.47;;;;;;;30.24;44.01;101506.94;6127080;23;20001;-80
2022/08/03 06:47:27;;;;;;;9.77;2.58;;;;;;;30.20;43.33;101504.91;6126887;23;20010;-79
2022/08/03 06:49:53;;;;;;;9.13;2.55;;;;;;;30.54;43.41;101509.88;6126925;23;20006;-76
2022/08/03 06:52:18;;;;;;;10.15;2.78;;;;;;;30.92;42.35;101513.63;6127236;23;20032;-77
2022/08/03 06:54:43;;;;;;;7.60;2.55;;;;;;;31.00;41.71;101510.72;6126834;23;20017;-77
2022/08/03 06:57:10;;;;;;;12.27;2.63;;;;;;;30.74;41.97;101511.66;6126635;23;20006;-77
2022/08/03 06:59:36;;;;;;;9.48;2.22;;;;;;;30.83;41.94;101508.53;6126729;23;20028;-83
2022/08/03 07:02:01;;;;;;;12.73;2.65;;;;;;;31.11;41.50;101505.50;6126616;23;20428;-79
2022/08/03 07:04:27;;;;;;;8.23;2.83;;;;;;;31.60;40.74;101498.56;6126892;23;20064;-78
2022/08/03 07:06:53;;;;;;;7.35;2.33;;;;;;;31.60;40.70;101517.25;6126678;23;20002;-75
2022/08/03 07:09:18;;;;;;;11.38;2.63;;;;;;;31.15;41.45;101515.72;6126615;23;20010;-78
2022/08/03 07:11:43;;;;;;;9.63;2.20;;;;;;;31.37;40.84;101519.72;6126484;23;20002;-75
2022/08/03 07:14:08;;;;;;;9.02;2.20;;;;;;;31.33;40.74;101510.50;6126043;23;20056;-75
2022/08/03 07:16:34;;;;;;;10.70;2.50;;;;;;;30.92;41.24;101498.44;6126225;23;20036;-76
2022/08/03 07:18:59;;;;;;;13.95;2.88;;;;;;;31.21;40.64;101518.41;6126590;23;20017;-77
2022/08/03 07:21:24;;;;;;;9.48;2.50;;;;;;;31.39;41.30;101518.47;6126423;23;20041;-79
2022/08/03 07:23:50;;;;;;;14.13;3.08;;;;;;;31.62;39.64;101525.03;6125624;23;20057;-77
2022/08/03 07:26:15;;;;;;;9.73;2.58;;;;;;;31.65;40.45;101514.72;6126689;23;20028;-77
2022/08/03 07:28:41;;;;;;;7.47;2.40;;;;;;;32.14;39.41;101525.59;6126635;23;20376;-77
2022/08/03 07:31:06;;;;;;;10.18;2.55;;;;;;;32.10;39.30;101511.84;6126536;23;20373;-76
2022/08/03 07:33:32;;;;;;;9.55;2.38;;;;;;;31.01;40.44;101523.00;6076627;23;20009;-75
2022/08/03 07:35:57;;;;;;;9.95;2.50;;;;;;;29.24;44.00;101531.94;6125654;23;20040;-76
2022/08/03 07:38:22;;;;;;;15.63;3.20;;;;;;;27.81;48.13;101531.84;6126408;23;20337;-76
2022/08/03 07:40:48;;;;;;;11.85;2.55;;;;;;;26.82;50.81;101515.75;6126310;23;20002;-75
2022/08/03 07:43:13;;;;;;;9.40;2.40;;;;;;;26.37;53.17;101525.59;6126370;23;20006;-73
2022/08/03 07:45:38;;;;;;;11.75;2.45;;;;;;;25.90;53.28;101532.00;6126087;23;20012;-76
2022/08/03 07:48:04;;;;;;;16.13;2.90;;;;;;;25.42;56.19;101526.09;6126102;23;20005;-83
2022/08/03 07:50:29;;;;;;;12.80;2.90;;;;;;;25.25;56.73;101529.84;6126269;23;20076;-76
2022/08/03 07:52:56;;;;;;;12.52;3.45;;;;;;;25.02;58.15;101516.63;6125924;23;20002;-76
2022/08/03 07:55:24;;;;;;;16.33;3.00;;;;;;;24.97;57.99;101526.84;6126219;23;20028;-78
2022/08/03 07:58:01;;;;;;;12.15;3.08;;;;;;;24.98;58.56;101525.88;6125872;23;20372;-75
2022/08/03 08:00:26;;;;;;;13.27;2.97;;;;;;;24.89;59.64;101522.47;6126039;23;20065;-82
2022/08/03 08:02:52;;;;;;;11.98;3.20;;;;;;;24.74;59.62;101513.59;6126157;23;20057;-72
2022/08/03 08:05:17;;;;;;;10.98;2.58;;;;;;;24.69;59.60;101513.31;6126092;23;20002;-76
2022/08/03 08:07:42;;;;;;;10.38;2.83;;;;;;;24.72;60.00;101512.97;6125914;23;20002;-75
2022/08/03 08:10:08;;;;;;;10.15;2.88;;;;;;;24.83;59.96;101514.41;6126061;23;20002;-75
2022/08/03 08:12:34;;;;;;;13.55;3.28;;;;;;;24.81;60.94;101513.75;6126259;23;20001;-76
2022/08/03 08:15:00;;;;;;;11.00;2.80;;;;;;;24.68;59.92;101516.97;6125814;23;20009;-74
2022/08/03 08:17:26;;;;;;;10.07;3.00;;;;;;;24.70;60.09;101522.88;6126140;23;20013;-75
2022/08/03 08:19:51;;;;;;;11.57;2.80;;;;;;;24.52;60.10;101499.34;6125263;23;20014;-76
2022/08/03 08:22:16;;;;;;;13.43;2.83;;;;;;;24.67;60.06;101527.66;6125793;23;20002;-76
2022/08/03 08:24:43;;;;;;;11.52;2.67;;;;;;;24.51;60.50;101494.25;6125717;23;20443;-75
2022/08/03 08:27:10;;;;;;;13.40;2.95;;;;;;;24.44;60.34;101478.25;6126002;23;20006;-75
2022/08/03 08:29:36;;;;;;;14.68;3.30;;;;;;;24.79;60.12;101524.50;6126139;23;20006;-75
2022/08/03 08:32:13;;;;;;;13.65;3.45;;;;;;;24.83;59.99;101514.41;5130712;27;20412;-76
2022/08/03 08:34:38;;;;;;;12.57;3.15;;;;;;;24.83;59.56;101522.31;5131071;27;20035;-75
2022/08/03 08:37:04;;;;;;;12.65;2.97;;;;;;;24.85;60.43;101518.50;5130899;27;20024;-72
2022/08/03 08:39:29;;;;;;;14.57;2.92;;;;;;;24.96;61.25;101509.34;5130918;27;20083;-72
2022/08/03 08:41:54;;;;;;;10.20;2.35;;;;;;;25.07;60.11;101516.09;5130867;27;20108;-72
2022/08/03 08:44:20;;;;;;;16.73;3.50;;;;;;;25.14;60.42;101511.75;5130741;27;20077;-71
2022/08/03 08:46:46;;;;;;;15.48;2.90;;;;;;;25.04;59.07;101504.06;5130325;27;20038;-71
2022/08/03 08:49:17;;;;;;;10.30;3.35;;;;;;;25.18;60.00;101513.06;5130742;27;20102;-72
2022/08/03 08:51:43;;;;;;;10.60;2.97;;;;;;;25.21;58.68;101510.06;5130486;27;20038;-70
2022/08/03 08:54:10;;;;;;;14.45;2.95;;;;;;;25.22;58.32;101506.44;5130828;27;20032;-75
2022/08/03 08:56:37;;;;;;;10.07;2.92;;;;;;;25.23;58.09;101513.34;5130615;27;20020;-75
2022/08/03 08:59:03;;;;;;;14.93;3.28;;;;;;;25.19;57.93;101513.91;5129260;27;20493;-77
2022/08/03 09:01:28;;;;;;;14.30;3.13;;;;;;;25.25;58.21;101514.00;5130087;27;20031;-79
2022/08/03 09:03:54;;;;;;;11.60;2.60;;;;;;;25.20;57.40;101513.72;5129475;28;20098;-69
2022/08/03 09:06:21;;;;;;;12.63;2.80;;;;;;;25.24;57.79;101509.72;5130061;27;20038;-76
2022/08/03 09:08:47;;;;;;;14.73;2.97;;;;;;;25.25;57.79;101502.59;5130378;27;20019;-77
2022/08/03 09:11:12;;;;;;;13.80;2.90;;;;;;;25.35;56.91;101497.91;5130237;27;20024;-71
2022/08/03 09:13:37;;;;;;;14.85;2.83;;;;;;;25.46;57.43;101502.75;5130296;27;20514;-71
2022/08/03 09:16:17;;;;;;;14.65;3.13;;;;;;;25.56;58.03;101513.09;5130229;27;20114;-78
2022/08/03 09:18:47;;;;;;;15.18;3.13;;;;;;;25.74;58.18;101511.81;5129864;27;20058;-74
2022/08/03 09:21:16;;;;;;;15.23;3.10;;;;;;;25.81;56.90;101514.56;5130132;27;20438;-77
2022/08/03 09:24:02;;;;;;;11.88;3.42;;;;;;;25.91;57.25;101501.06;5129970;27;20039;-73
2022/08/03 09:26:30;;;;;;;17.65;3.45;;;;;;;26.14;56.66;101522.16;5129858;27;20031;-70
2022/08/03 09:29:07;;;;;;;13.73;2.95;;;;;;;26.02;56.46;101506.75;5129624;27;20034;-78
2022/08/03 09:31:35;;;;;;;12.23;2.95;;;;;;;26.03;55.21;101510.22;5129686;27;20091;-72
2022/08/03 09:34:09;;;;;;;12.20;3.08;;;;;;;26.18;57.16;101515.53;5129462;27;20436;-71
2022/08/03 09:36:48;;;;;;;12.82;2.85;;;;;;;26.20;55.48;101510.88;5129650;27;20024;-79
2022/08/03 09:39:20;;;;;;;14.93;2.83;;;;;;;26.24;56.41;101520.06;5129782;27;20390;-78
2022/08/03 09:42:02;;;;;;;12.88;2.92;;;;;;;26.42;55.87;101520.56;5125993;27;20027;-78
2022/08/03 09:44:42;;;;;;;13.70;3.20;;;;;;;26.45;55.57;101520.22;5115871;28;20073;-76
2022/08/03 09:47:09;;;;;;;11.75;2.80;;;;;;;26.26;54.25;101497.72;5116011;28;20406;-71
2022/08/03 09:49:36;;;;;;;15.15;3.25;;;;;;;26.48;54.09;101511.91;5115446;28;20027;-78
2022/08/03 09:52:16;;;;;;;15.05;3.30;;;;;;;26.51;53.04;101511.50;5115608;28;20114;-71
2022/08/03 09:54:42;;;;;;;14.23;3.13;;;;;;;26.54;53.02;101511.13;5114955;28;20031;-77
2022/08/03 09:57:19;;;;;;;17.08;3.42;;;;;;;26.53;53.51;101509.50;5116421;28;20019;-77
2022/08/03 09:59:45;;;;;;;21.75;3.55;;;;;;;26.61;52.99;101510.41;5115507;28;20099;-78
2022/08/03 10:02:21;;;;;;;11.80;3.35;;;;;;;26.53;53.09;101498.91;5115414;28;20055;-74
2022/08/03 10:04:47;;;;;;;15.48;3.33;;;;;;;26.46;53.21;101482.13;5115368;28;20069;-76
2022/08/03 10:07:12;;;;;;;16.48;3.08;;;;;;;26.76;51.85;101503.28;5115398;28;20031;-72
2022/08/03 10:09:53;;;;;;;17.88;3.72;;;;;;;26.96;53.36;101508.78;5115484;28;20486;-71
2022/08/03 10:12:19;;;;;;;;;;;;;;;27.03;53.35;101513.16;5115750;28;20028;-78
2022/08/03 10:14:45;;;;;;;16.70;3.25;;;;;;;27.18;51.01;101507.00;5115077;28;19918;-69
2022/08/03 10:17:11;;;;;;;19.63;3.40;;;;;;;27.21;50.98;101510.06;5115279;28;20034;-73
2022/08/03 10:19:36;;;;;;;16.65;3.22;;;;;;;27.26;50.59;101505.03;5115155;28;20032;-73
2022/08/03 10:22:35;;;;;;;12.75;2.90;;;;;;;27.29;51.16;101509.97;5115234;28;20543;-76
2022/08/03 10:25:10;;;;;;;18.17;2.90;;;;;;;27.24;49.49;101500.94;5051963;28;20039;-70
2022/08/03 10:27:38;;;;;;;18.10;3.65;;;;;;;27.37;50.49;101503.72;5052352;28;20055;-76
2022/08/03 10:30:09;;;;;;;19.33;3.05;;;;;;;27.46;51.02;101496.44;5051970;28;20036;-71
2022/08/03 10:32:40;;;;;;;15.50;3.17;;;;;;;27.55;49.74;101504.06;5052163;28;20374;-73
2022/08/03 10:35:15;;;;;;;17.00;3.30;;;;;;;27.67;50.33;101497.25;5051069;28;20118;-71
2022/08/03 10:37:46;;;;;;;13.90;3.25;;;;;;;27.67;49.38;101491.94;5052796;28;20036;-70
2022/08/03 10:40:20;;;;;;;16.77;3.15;;;;;;;27.57;48.01;101480.81;5052141;28;20112;-71
2022/08/03 10:42:47;;;;;;;15.73;3.38;;;;;;;27.68;48.21;101485.63;5052024;28;20033;-70
2022/08/03 10:45:19;;;;;;;14.30;2.80;;;;;;;27.66;48.00;101478.88;5052091;28;20179;-69
2022/08/03 10:47:47;;;;;;;16.92;3.08;;;;;;;27.83;48.80;101484.72;5051829;28;20087;-68
2022/08/03 10:50:13;;;;;;;21.52;3.45;;;;;;;27.83;47.77;101484.72;5051461;28;20056;-70
2022/08/03 10:53:00;;;;;;;15.48;3.58;;;;;;;27.83;48.90;101482.06;5051638;28;20280;-70
2022/08/03 10:58:37;;;;;;;18.95;3.13;;;;;;;27.98;48.69;101472.13;5052091;28;20044;-67
2022/08/03 11:01:08;;;;;;;15.10;3.28;;;;;;;27.98;48.15;101464.16;5067649;28;20112;-70
2022/08/03 11:03:53;;;;;;;21.58;3.53;;;;;;;27.97;47.20;101468.66;5093990;28;20432;-70
2022/08/03 11:06:21;;;;;;;16.08;3.25;;;;;;;27.98;47.23;101472.13;5094077;28;20028;-71
2022/08/03 11:08:47;;;;;;;14.98;3.63;;;;;;;27.90;47.38;101454.53;5092616;28;20464;-70
2022/08/03 11:11:16;;;;;;;13.95;3.10;;;;;;;28.12;46.99;101465.06;5093842;28;20063;-70
2022/08/03 11:14:09;;;;;;;13.02;2.78;;;;;;;28.16;46.64;101464.47;5094019;28;20063;-70
2022/08/03 11:16:41;;;;;;;11.02;2.63;;;;;;;28.22;45.99;101461.03;5083917;28;20036;-72
2022/08/03 11:19:42;;;;;;;13.43;2.70;;;;;;;28.16;45.93;101461.00;5093509;28;20028;-71
2022/08/03 11:22:08;;;;;;;11.77;2.60;;;;;;;28.19;44.92;101456.09;5093473;28;20050;-69
2022/08/03 11:24:36;;;;;;;12.63;2.60;;;;;;;28.29;44.70;101455.78;5093605;28;20028;-71
2022/08/03 11:27:13;;;;;;;12.32;2.50;;;;;;;28.41;45.67;101458.69;5093564;28;20036;-71
2022/08/03 11:30:03;;;;;;;18.55;3.53;;;;;;;28.37;45.34;101454.78;5093651;28;20425;-70
2022/08/03 11:32:42;;;;;;;14.00;2.60;;;;;;;28.56;46.00;101457.53;5093313;28;20029;-69
2022/08/03 11:35:34;;;;;;;12.85;2.85;;;;;;;28.72;45.06;101459.00;5093127;28;20028;-68